Time;durP1;ratioP1;P1;durP2;ratioP2;P2;SDS_P1;SDS_P2;PMS_P1;PMS_P2;Temp;Humidity;BMP_temperature;BMP_pressure;BME280_temperature;BME280_humidity;BME280_pressure;Samples;Min_cycle;Max_cycle;Signal;HPM_P1;HPM_P2
2020/12/18 16:39:17;;;;;;;4.20;2.65;;;8.10;99.90;;;;;;5153035;27;20321;-60
2020/12/18 16:41:43;;;;;;;3.40;2.40;;;8.00;99.90;;;;;;5133365;27;20029;-61
2020/12/18 16:44:09;;;;;;;5.22;2.92;;;8.00;99.90;;;;;;5136652;27;20020;-61
2020/12/18 16:46:35;;;;;;;3.63;2.85;;;8.00;99.90;;;;;;5126232;28;20097;-61
2020/12/18 16:49:02;;;;;;;6.45;2.70;;;8.00;99.90;;;;;;5123752;28;20440;-61
2020/12/18 16:51:28;;;;;;;8.73;3.33;;;8.00;99.90;;;;;;5127577;27;20031;-61
2020/12/18 16:53:53;;;;;;;4.88;3.00;;;8.00;99.90;;;;;;5132381;27;20034;-61
2020/12/18 16:56:21;;;;;;;4.63;3.03;;;8.00;99.90;;;;;;5137947;27;20107;-61
2020/12/18 16:58:47;;;;;;;6.85;2.88;;;8.00;99.90;;;;;;5132145;27;20031;-62
2020/12/18 17:01:13;;;;;;;6.60;3.55;;;7.90;99.90;;;;;;5126248;27;20027;-61
2020/12/18 17:03:40;;;;;;;5.80;3.28;;;7.90;99.90;;;;;;5124904;27;20092;-61
2020/12/18 17:06:09;;;;;;;4.20;3.08;;;8.00;99.90;;;;;;5126863;27;20015;-61
2020/12/18 17:08:34;;;;;;;9.35;3.80;;;8.00;99.90;;;;;;5132660;27;20036;-61
2020/12/18 17:11:00;;;;;;;5.38;3.17;;;8.00;99.90;;;;;;5139311;27;20091;-61
2020/12/18 17:13:27;;;;;;;6.60;3.65;;;7.90;99.90;;;;;;5132385;27;20034;-60
2020/12/18 17:15:52;;;;;;;6.60;3.70;;;8.00;99.90;;;;;;5138438;27;20069;-59
2020/12/18 17:18:18;;;;;;;6.75;3.90;;;8.00;99.90;;;;;;5134714;27;20449;-62
2020/12/18 17:20:45;;;;;;;6.55;3.67;;;8.00;99.90;;;;;;5127427;27;20537;-62
2020/12/18 17:23:11;;;;;;;6.45;3.67;;;8.00;99.90;;;;;;5128428;27;20074;-62
2020/12/18 17:25:37;;;;;;;8.68;4.75;;;8.00;99.90;;;;;;5137917;27;20475;-60
2020/12/18 17:28:02;;;;;;;7.80;4.40;;;8.00;99.90;;;;;;5124628;27;20035;-60
2020/12/18 17:30:28;;;;;;;5.75;3.40;;;8.00;99.90;;;;;;5139961;27;20091;-60
2020/12/18 17:32:53;;;;;;;12.35;6.32;;;7.90;99.90;;;;;;5123019;27;20098;-61
2020/12/18 17:35:19;;;;;;;7.03;4.07;;;7.90;99.90;;;;;;5113767;28;20069;-61
2020/12/18 17:37:44;;;;;;;5.88;3.65;;;8.00;99.90;;;;;;5136467;27;20027;-61
2020/12/18 17:40:11;;;;;;;9.27;3.78;;;8.00;99.90;;;;;;5126462;27;20115;-62
2020/12/18 17:42:37;;;;;;;6.38;3.75;;;7.90;99.90;;;;;;5127641;27;20476;-60
2020/12/18 17:45:04;;;;;;;7.65;4.07;;;8.00;99.90;;;;;;5120953;27;20118;-61
2020/12/18 17:47:30;;;;;;;7.75;4.13;;;7.90;99.90;;;;;;5129540;27;20027;-61
2020/12/18 17:49:55;;;;;;;9.15;4.95;;;7.90;99.90;;;;;;5109857;27;20038;-61
2020/12/18 17:52:21;;;;;;;8.98;4.22;;;7.80;99.90;;;;;;5104309;27;20032;-62
2020/12/18 17:54:46;;;;;;;7.75;5.10;;;7.80;99.90;;;;;;5096604;28;20032;-61
2020/12/18 17:57:12;;;;;;;10.35;4.53;;;7.70;99.90;;;;;;5129461;27;20031;-60
2020/12/18 17:59:37;;;;;;;8.40;4.70;;;7.70;99.90;;;;;;5118729;27;20030;-60
2020/12/18 18:02:03;;;;;;;6.57;4.60;;;7.60;99.90;;;;;;5130260;27;20102;-61
2020/12/18 18:04:29;;;;;;;9.07;4.80;;;7.60;99.90;;;;;;5112611;27;20095;-61
2020/12/18 18:06:55;;;;;;;7.72;5.45;;;7.60;99.90;;;;;;5105644;27;20015;-61
2020/12/18 18:09:20;;;;;;;8.77;5.72;;;7.50;99.90;;;;;;5139725;27;20462;-61
2020/12/18 18:11:46;;;;;;;7.65;4.88;;;7.50;99.90;;;;;;5138817;27;20043;-60
2020/12/18 18:14:11;;;;;;;8.13;5.20;;;7.50;99.90;;;;;;5126339;27;20019;-61
2020/12/18 18:16:41;;;;;;;7.70;4.75;;;7.40;99.90;;;;;;5123594;27;20179;-60
2020/12/18 18:19:06;;;;;;;11.57;5.85;;;7.50;99.90;;;;;;5115155;27;20036;-60
2020/12/18 18:21:32;;;;;;;13.57;6.07;;;7.40;99.90;;;;;;5117400;27;20777;-59
2020/12/18 18:23:57;;;;;;;8.73;4.85;;;7.40;99.90;;;;;;5115216;28;20116;-60
2020/12/18 18:26:23;;;;;;;7.82;5.28;;;7.30;99.90;;;;;;5113476;27;20043;-59
2020/12/18 18:28:49;;;;;;;10.35;5.90;;;7.30;99.90;;;;;;5114864;27;20086;-59
2020/12/18 18:31:15;;;;;;;12.50;5.95;;;7.30;99.90;;;;;;5115553;27;20022;-60
2020/12/18 18:33:41;;;;;;;10.05;6.03;;;7.30;99.90;;;;;;5115397;27;20098;-59
2020/12/18 18:36:06;;;;;;;10.10;6.95;;;7.30;99.90;;;;;;5116809;28;20480;-60
2020/12/18 18:38:32;;;;;;;15.30;6.03;;;7.30;99.90;;;;;;5112795;28;20039;-60
2020/12/18 18:40:58;;;;;;;10.75;5.97;;;7.20;99.90;;;;;;5115691;28;20028;-60
2020/12/18 18:43:24;;;;;;;31.23;8.30;;;7.20;99.90;;;;;;5113704;27;20095;-60
2020/12/18 18:45:49;;;;;;;10.65;6.38;;;7.10;99.90;;;;;;5106275;28;20032;-61
2020/12/18 18:48:15;;;;;;;13.93;6.55;;;7.10;99.90;;;;;;5134643;27;20036;-61
2020/12/18 18:50:40;;;;;;;13.32;6.55;;;7.10;99.90;;;;;;5109662;27;20058;-60
2020/12/18 18:53:06;;;;;;;12.80;7.55;;;7.00;99.90;;;;;;5115548;27;20035;-60
2020/12/18 18:55:31;;;;;;;11.40;6.80;;;6.90;99.90;;;;;;5112622;28;20020;-60
2020/12/18 18:57:58;;;;;;;13.00;7.40;;;6.80;99.90;;;;;;5105632;27;20031;-60
2020/12/18 19:00:24;;;;;;;17.83;9.15;;;6.70;99.90;;;;;;5113683;27;20038;-60
2020/12/18 19:02:50;;;;;;;11.50;7.20;;;6.60;99.90;;;;;;5112577;27;20024;-60
2020/12/18 19:05:16;;;;;;;14.68;7.35;;;6.50;99.90;;;;;;5102885;28;20034;-61
2020/12/18 19:07:42;;;;;;;11.93;7.13;;;6.50;99.90;;;;;;5108894;27;20028;-60
2020/12/18 19:10:09;;;;;;;17.30;9.60;;;6.50;99.90;;;;;;5110295;28;20032;-60
2020/12/18 19:12:36;;;;;;;15.68;9.32;;;6.50;99.90;;;;;;5112547;27;20039;-58
2020/12/18 19:15:03;;;;;;;19.48;9.48;;;6.60;99.90;;;;;;5112243;27;20031;-59
2020/12/18 19:17:28;;;;;;;12.35;7.82;;;6.60;99.90;;;;;;5111467;28;20032;-60
2020/12/18 19:19:54;;;;;;;12.68;8.95;;;6.60;99.90;;;;;;5111565;27;20023;-61
2020/12/18 19:22:20;;;;;;;13.15;9.02;;;6.60;99.90;;;;;;5089386;28;20062;-63
2020/12/18 19:24:45;;;;;;;16.52;9.18;;;6.60;99.90;;;;;;5087277;28;20760;-61
2020/12/18 19:27:12;;;;;;;14.35;8.90;;;6.60;99.90;;;;;;5103169;28;20028;-60
2020/12/18 19:29:38;;;;;;;13.68;8.93;;;6.60;99.90;;;;;;5106755;27;20023;-63
2020/12/18 19:32:08;;;;;;;16.13;9.80;;;6.60;99.90;;;;;;5105375;28;20068;-63
2020/12/18 19:34:34;;;;;;;18.75;9.27;;;6.60;99.90;;;;;;5099657;28;20024;-61
2020/12/18 19:37:00;;;;;;;14.65;9.63;;;6.70;99.90;;;;;;5109207;27;20020;-60
2020/12/18 19:39:25;;;;;;;15.65;9.60;;;6.70;99.90;;;;;;5105305;28;20036;-60
2020/12/18 19:41:51;;;;;;;16.25;9.68;;;6.70;99.90;;;;;;5102503;27;20034;-61
2020/12/18 19:44:17;;;;;;;16.95;10.10;;;6.70;99.90;;;;;;5107764;27;20050;-61
2020/12/18 19:46:43;;;;;;;18.17;9.98;;;6.70;99.90;;;;;;5106739;28;20168;-62
2020/12/18 19:49:09;;;;;;;18.00;9.63;;;6.70;99.90;;;;;;5103459;28;20043;-61
2020/12/18 19:51:35;;;;;;;17.08;10.35;;;6.70;99.90;;;;;;5101402;28;20028;-61
2020/12/18 19:54:01;;;;;;;15.55;9.45;;;6.70;99.90;;;;;;5105665;28;20027;-60
2020/12/18 19:56:36;;;;;;;17.20;10.38;;;6.60;99.90;;;;;;5103364;28;20039;-62
2020/12/18 19:59:03;;;;;;;16.00;10.63;;;6.60;99.90;;;;;;5104587;28;20574;-61
2020/12/18 20:01:29;;;;;;;18.05;10.57;;;6.60;99.90;;;;;;5104969;27;20134;-61
2020/12/18 20:03:55;;;;;;;16.70;9.75;;;6.60;99.90;;;;;;5105890;27;20546;-61
2020/12/18 20:06:21;;;;;;;16.33;9.27;;;6.50;99.90;;;;;;5101291;28;20482;-61
2020/12/18 20:08:49;;;;;;;17.13;10.68;;;6.50;99.90;;;;;;5105211;28;20449;-61
2020/12/18 20:11:18;;;;;;;15.23;9.45;;;6.40;99.90;;;;;;5105629;28;20035;-60
2020/12/18 20:13:44;;;;;;;14.93;9.68;;;6.40;99.90;;;;;;5101688;28;20037;-61
2020/12/18 20:16:10;;;;;;;17.80;11.45;;;6.40;99.90;;;;;;5105647;28;20044;-62
2020/12/18 20:18:35;;;;;;;21.00;11.60;;;6.40;99.90;;;;;;5102557;28;20024;-61
2020/12/18 20:21:01;;;;;;;20.88;11.35;;;6.40;99.90;;;;;;5102909;28;20026;-61
2020/12/18 20:23:27;;;;;;;18.73;11.02;;;6.40;99.90;;;;;;5102599;28;20119;-61
2020/12/18 20:25:52;;;;;;;20.73;11.43;;;6.40;99.90;;;;;;5102794;28;20031;-62
2020/12/18 20:28:18;;;;;;;19.92;11.70;;;6.40;99.90;;;;;;5103896;28;20063;-62
2020/12/18 20:30:43;;;;;;;17.27;11.05;;;6.40;99.90;;;;;;5101807;28;20578;-62
2020/12/18 20:33:09;;;;;;;17.15;11.13;;;6.40;99.90;;;;;;5102654;28;20035;-60
